EW9037 Weather Reports


time (UTC)temp
F
wind
direction
speed
knots
gust
knots
rain 1hr
in
rain 24hr
in
rain mn
in
humidity
%
barometer
mb
20260509090012 55 207 0.0 1.7 0.00 0.00 0.00 81 1008.7
20260509084507 56 205 0.9 1.7 0.00 0.00 0.00 80 1008.9
20260509083038 56 294 0.9 1.7 0.00 0.00 0.00 75 1008.9
20260509081523 57 221 0.9 1.7 0.00 0.00 0.00 75 1008.9
20260509080025 56 25 0.0 0.9 0.00 0.00 0.00 74 1008.7
20260509074516 58 200 0.0 1.7 0.00 0.00 0.00 67 1008.5
20260509073013 58 173 0.0 1.7 0.00 0.00 0.00 67 1008.6
20260509071512 58 150 1.7 3.5 0.00 0.00 0.00 66 1008.6
20260509070009 58 148 0.9 2.6 0.00 0.00 0.00 68 1008.8
20260509064526 57 157 0.9 2.6 0.00 0.00 0.00 69 1008.9
20260509063022 56 148 0.0 1.7 0.00 0.00 0.00 72 1009.1
20260509061522 57 147 0.9 2.6 0.00 0.00 0.00 70 1009.2
20260509060029 58 153 0.9 2.6 0.00 0.00 0.00 63 1009.4
20260509054513 59 161 0.9 2.6 0.00 0.00 0.00 63 1009.4
20260509053011 59 188 0.0 0.0 0.00 0.00 0.00 64 1009.5
20260509051526 58 180 0.0 0.0 0.00 0.00 0.00 67 1009.5
20260509050029 58 147 0.0 0.0 0.00 0.00 0.00 66 1009.4
20260509044526 57 147 0.0 0.0 0.00 0.00 0.00 67 1009.4
20260509043022 57 164 0.0 0.0 0.00 0.00 0.00 67 1009.4
20260509041532 56 164 0.0 0.0 0.00 0.00 0.00 73 1009.5
20260509040014 57 164 0.0 0.0 0.00 0.00 0.00 73 1009.6
20260509034511 57 164 0.0 0.0 0.00 0.00 0.00 74 1009.6
20260509033029 58 164 0.0 0.0 0.00 0.00 0.00 70 1009.6
20260509031530 57 164 0.0 0.0 0.00 0.00 0.00 69 1009.8
20260509030024 58 164 0.0 0.0 0.00 0.00 0.00 71 1009.9
20260509024522 59 164 0.0 0.0 0.00 0.00 0.00 65 1010.0
20260509023018 59 158 0.0 0.0 0.00 0.00 0.00 70 1010.1
20260509021514 60 158 0.0 0.0 0.00 0.00 0.00 63 1010.2
20260509020013 61 169 0.0 1.7 0.00 0.00 0.00 60 1010.1
20260509014525 62 204 0.0 1.7 0.00 0.00 0.00 56 1010.1
20260509013026 62 197 0.9 1.7 0.00 0.00 0.00 52 1010.1
20260509011528 63 186 0.0 0.0 0.00 0.00 0.00 52 1010.0
20260509010036 64 216 0.0 0.0 0.00 0.00 0.00 50 1010.1
20260509004525 65 177 0.0 3.5 0.00 0.00 0.00 48 1010.1
20260509003013 65 220 1.7 4.3 0.00 0.00 0.00 48 1010.1
20260509001529 66 173 1.7 6.1 0.00 0.00 0.00 46 1010.2
20260509000028 67 198 1.7 5.2 0.00 0.00 0.00 46 1010.3
20260508234526 67 221 1.7 7.0 0.00 0.00 0.00 46 1010.2
20260508233026 68 219 3.5 7.8 0.00 0.00 0.00 45 1010.3
20260508231523 69 163 4.3 7.8 0.00 0.00 0.00 44 1010.3
20260508230034 70 192 5.2 11.3 0.00 0.00 0.00 43 1010.3
20260508224516 70 193 3.5 13.0 0.00 0.00 0.00 43 1010.4
20260508223036 70 171 5.2 10.4 0.00 0.00 0.00 42 1010.6
20260508221541 71 182 5.2 14.8 0.00 0.00 0.00 41 1010.5
20260508220029 72 217 7.0 13.0 0.00 0.00 0.00 39 1010.4
20260508214527 71 221 5.2 11.3 0.00 0.00 0.00 41 1010.3
20260508213025 72 223 7.0 10.4 0.00 0.00 0.00 40 1010.2
20260508211522 72 215 3.5 13.9 0.00 0.00 0.00 42 1010.4
20260508210019 73 202 3.5 13.0 0.00 0.00 0.00 41 1010.6
20260508204530 72 197 7.8 12.2 0.00 0.00 0.00 39 1011.0
20260508203028 73 185 3.5 10.4 0.00 0.00 0.00 40 1011.1
20260508201531 72 230 7.0 13.9 0.00 0.00 0.00 39 1011.5
20260508200025 72 217 7.0 16.5 0.00 0.00 0.00 38 1011.8
20260508194526 73 233 5.2 13.9 0.00 0.00 0.00 37 1012.1
20260508193024 72 219 5.2 13.9 0.00 0.00 0.00 38 1012.3
20260508191531 72 206 7.8 15.6 0.00 0.00 0.00 37 1012.7
20260508190036 71 194 4.3 16.5 0.00 0.00 0.00 38 1012.8
20260508184534 71 224 8.7 14.8 0.00 0.00 0.00 37 1013.1
20260508183029 71 224 7.0 15.6 0.00 0.00 0.00 38 1013.1
20260508181527 70 192 7.8 13.0 0.00 0.00 0.00 38 1013.0
20260508180026 71 234 5.2 11.3 0.00 0.00 0.00 41 1012.9
20260508174534 70 162 4.3 15.6 0.00 0.00 0.00 40 1013.1
20260508173022 70 232 7.8 13.9 0.00 0.00 0.00 38 1013.5
20260508171518 69 276 7.8 15.6 0.00 0.00 0.00 38 1014.0
20260508170014 69 225 6.1 15.6 0.00 0.00 0.00 40 1014.1
20260508164535 69 195 4.3 15.6 0.00 0.00 0.00 42 1014.4
20260508163028 69 247 7.8 10.4 0.00 0.00 0.00 41 1014.8
20260508161527 68 223 6.1 13.0 0.00 0.00 0.00 41 1015.1
20260508160031 69 202 5.2 8.7 0.00 0.00 0.00 45 1015.2
20260508154527 68 200 4.3 12.2 0.00 0.00 0.00 45 1015.3
20260508153018 67 234 5.2 11.3 0.00 0.00 0.00 44 1015.6
20260508151518 67 165 3.5 9.6 0.00 0.00 0.00 43 1015.6
20260508150013 65 174 3.5 10.4 0.00 0.00 0.00 46 1015.9
20260508144511 65 217 4.3 8.7 0.00 0.00 0.00 48 1016.1
20260508143007 64 224 5.2 12.2 0.00 0.00 0.00 48 1016.3
20260508141505 62 231 3.5 8.7 0.00 0.00 0.00 51 1016.4
20260508140022 60 201 1.7 6.1 0.00 0.00 0.00 57 1016.3
20260508134522 59 213 2.6 7.8 0.00 0.00 0.00 59 1016.4
20260508133025 56 225 2.6 5.2 0.00 0.00 0.00 62 1016.4
20260508131518 55 222 2.6 4.3 0.00 0.00 0.00 65 1016.4
20260508130013 52 200 0.9 3.5 0.00 0.00 0.00 70 1016.3
20260508124508 50 186 1.7 3.5 0.00 0.00 0.00 72 1016.2
20260508123008 48 152 0.9 3.5 0.00 0.00 0.00 77 1016.3
20260508121526 47 148 0.0 0.0 0.00 0.00 0.00 81 1016.3
20260508120022 44 148 0.0 0.0 0.00 0.00 0.00 87 1016.2
20260508114519 42 144 0.0 0.0 0.00 0.00 0.00 91 1016.1
20260508113018 40 145 0.0 0.0 0.00 0.00 0.00 94 1016.0
20260508111514 38 130 0.0 0.0 0.00 0.00 0.00 94 1015.8
20260508110009 38 130 0.0 0.0 0.00 0.00 0.00 93 1015.6
20260508104535 38 130 0.0 0.0 0.00 0.00 0.00 93 1015.6
20260508103034 38 134 0.0 0.0 0.00 0.00 0.00 93 1015.6
20260508101524 39 147 0.0 0.0 0.00 0.00 0.00 93 1015.5
20260508100021 39 140 0.0 0.0 0.00 0.00 0.00 94 1015.4
20260508094517 39 140 0.0 0.0 0.00 0.00 0.00 94 1015.6
20260508093013 39 140 0.0 1.7 0.00 0.00 0.00 93 1015.6
20260508091515 39 148 0.0 1.7 0.00 0.00 0.00 94 1015.6